Time;durP1;ratioP1;P1;durP2;ratioP2;P2;SDS_P1;SDS_P2;PMS_P1;PMS_P2;Temp;Humidity;BMP_temperature;BMP_pressure;BME280_temperature;BME280_humidity;BME280_pressure;Samples;Min_cycle;Max_cycle;Signal;HPM_P1;HPM_P2
2021/08/08 00:01:57;;;;;;;;;;;17.10;99.90;;;15.85;76.37;100047.16;3481634;40;103068;-39
2021/08/08 00:04:24;;;;;;;;;;;17.10;99.90;;;15.84;77.11;100053.75;3481545;40;102615;-39
2021/08/08 00:06:51;;;;;;;;;;;17.10;99.90;;;15.88;78.28;100054.91;3481247;40;102282;-39
2021/08/08 00:09:18;;;;;;;;;;;17.10;99.90;;;15.83;78.28;100057.59;3481118;40;102691;-40
2021/08/08 00:11:46;;;;;;;;;;;17.10;99.90;;;15.82;79.11;100064.22;3481285;40;103202;-39
2021/08/08 00:14:13;;;;;;;;;;;17.00;99.90;;;15.72;79.59;100064.16;3481051;40;102911;-39
2021/08/08 00:16:41;;;;;;;;;;;17.00;99.90;;;15.62;80.43;100068.47;3481578;40;102122;-40
2021/08/08 00:19:08;;;;;;;;;;;16.90;99.90;;;15.61;80.37;100066.81;3481525;40;102235;-39
2021/08/08 00:21:36;;;;;;;;;;;16.90;99.90;;;15.55;80.67;100062.38;3481099;40;102380;-37
2021/08/08 00:24:03;;;;;;;;;;;16.80;99.90;;;15.55;81.18;100065.13;3481114;40;102846;-39
2021/08/08 00:26:31;;;;;;;;;;;16.80;99.90;;;15.59;81.13;100063.50;3481381;40;103882;-39
2021/08/08 00:29:00;;;;;;;;;;;16.80;99.90;;;15.59;81.28;100068.19;3481402;40;102358;-39
2021/08/08 00:31:28;;;;;;;;;;;16.80;99.90;;;15.60;79.37;100059.66;3480015;40;104217;-40
2021/08/08 00:33:58;;;;;;;;;;;16.80;99.90;;;15.67;79.65;100064.94;3480933;40;103986;-38
2021/08/08 00:36:25;;;;;;;;;;;16.90;99.90;;;15.63;79.86;100075.63;3480158;40;104848;-39
2021/08/08 00:38:56;;;;;;;;;;;16.90;99.90;;;15.64;80.04;100063.53;3479898;40;102312;-39
2021/08/08 00:41:26;;;;;;;;;;;16.90;99.90;;;15.64;79.29;100066.28;3481349;40;105312;-39
2021/08/08 00:43:54;;;;;;;;;;;16.90;99.90;;;15.73;78.75;100074.88;3479926;40;102551;-37
2021/08/08 00:46:22;;;;;;;;;;;16.90;99.90;;;15.76;79.04;100079.84;3479865;40;104978;-39
2021/08/08 00:48:49;;;;;;;;;;;16.90;99.90;;;15.77;78.78;100080.69;3480141;40;102844;-38
2021/08/08 00:51:20;;;;;;;;;;;17.00;99.90;;;15.78;78.01;100082.34;3479981;40;102580;-39
2021/08/08 00:53:48;;;;;;;;;;;17.00;99.90;;;15.78;78.29;100079.59;3480048;40;102573;-39
2021/08/08 00:56:17;;;;;;;;;;;17.00;99.90;;;15.79;77.52;100079.34;3479979;40;104173;-37
2021/08/08 00:58:45;;;;;;;;;;;16.90;99.90;;;15.72;78.21;100075.97;3480104;40;102142;-39
2021/08/08 01:01:19;;;;;;;;;;;17.00;99.90;;;15.76;78.68;100079.84;3481527;40;103238;-39
2021/08/08 01:03:47;;;;;;;;;;;17.00;99.90;;;15.84;77.54;100080.44;3479793;40;102480;-39
2021/08/08 01:06:56;;;;;;;;;;;17.00;99.90;;;15.82;76.73;100078.81;3479910;40;103173;-39
2021/08/08 01:09:31;;;;;;;;;;;17.00;99.90;;;15.81;76.59;100070.81;3460618;40;102503;-39
2021/08/08 01:12:00;;;;;;;;;;;17.00;99.90;;;15.82;77.15;100072.44;3484699;40;104710;-39
2021/08/08 01:14:30;;;;;;;;;;;17.00;99.90;;;15.85;76.68;100082.09;3481007;40;102202;-38
2021/08/08 01:17:04;;;;;;;;;;;17.10;99.90;;;15.82;76.87;100080.72;3481242;40;103168;-39
2021/08/08 01:19:38;;;;;;;;;;;17.00;99.90;;;15.86;77.33;100087.31;3481144;40;102277;-40
2021/08/08 01:22:07;;;;;;;;;;;17.10;99.90;;;15.82;76.48;100086.22;3481069;40;105290;-40
2021/08/08 01:24:36;;;;;;;;;;;17.10;99.90;;;15.81;76.27;100090.06;3481011;40;102682;-38
2021/08/08 01:27:03;;;;;;;;;;;17.00;99.90;;;15.84;77.00;100094.19;3482235;40;103920;-39
2021/08/08 01:29:33;;;;;;;;;;;17.00;99.90;;;15.87;75.98;100088.97;3481109;40;102535;-37
2021/08/08 01:32:01;;;;;;;;;;;17.00;99.90;;;15.98;75.26;100103.66;3482127;40;104819;-39
2021/08/08 01:34:35;;;;;;;;;;;17.10;99.90;;;15.85;75.88;100104.94;3482254;40;102594;-38
2021/08/08 01:37:06;;;;;;;;;;;17.10;99.90;;;15.89;75.95;100103.31;3489113;40;104088;-38
2021/08/08 01:39:35;;;;;;;;;;;17.10;99.90;;;15.91;75.65;100106.66;3482161;40;102851;-39
2021/08/08 01:42:08;;;;;;;;;;;17.10;99.90;;;15.88;76.35;100109.06;3480948;40;105994;-40
2021/08/08 01:44:47;;;;;;;;;;;17.10;99.90;;;15.85;76.12;100118.69;3481965;40;102893;-39
2021/08/08 01:47:18;;;;;;;;;;;17.10;99.90;;;15.85;76.03;100121.44;3480983;40;102389;-37
2021/08/08 01:49:48;;;;;;;;;;;17.00;99.90;;;15.86;75.41;100103.81;3481282;40;102327;-37
2021/08/08 01:52:21;;;;;;;;;;;17.00;99.90;;;15.87;75.46;100113.72;3481074;40;104301;-39
2021/08/08 01:54:54;;;;;;;;;;;17.00;99.90;;;15.85;75.69;100117.88;3488694;40;103681;-39
2021/08/08 01:57:29;;;;;;;;;;;17.00;99.90;;;15.89;75.03;100106.06;3480768;40;102387;-37
2021/08/08 02:00:07;;;;;;;;;;;17.00;99.90;;;15.84;76.41;100111.53;3480912;40;102875;-39
2021/08/08 02:03:09;;;;;;;;;;;17.00;99.90;;;15.91;75.77;100116.81;3482119;40;102847;-37
2021/08/08 02:05:42;;;;;;;;;;;17.00;99.90;;;15.87;75.57;100113.72;3475841;40;104068;-40
2021/08/08 02:08:12;;;;;;;;;;;17.00;99.90;;;15.81;75.53;100115.66;3480745;40;102350;-39
2021/08/08 02:10:50;;;;;;;;;;;17.10;99.90;;;15.81;75.75;100118.41;3480857;40;102944;-39
2021/08/08 02:13:26;;;;;;;;;;;17.10;99.90;;;15.84;74.92;100116.22;3480973;40;102325;-38
2021/08/08 02:15:55;;;;;;;;;;;17.00;99.90;;;15.78;75.82;100116.19;3480750;40;102465;-40
2021/08/08 02:18:24;;;;;;;;;;;17.00;99.90;;;15.74;75.20;100120.53;3480645;40;105390;-39
2021/08/08 02:20:53;;;;;;;;;;;17.00;99.90;;;15.81;74.31;100120.31;3616250;22;103185;-39
2021/08/08 02:23:20;;;;;;;;;;;17.00;99.90;;;15.75;74.90;100121.38;3511200;40;103398;-40
2021/08/08 02:25:51;;;;;;;;;;;16.90;99.90;;;15.77;74.52;100119.19;3509319;40;102252;-39
2021/08/08 02:28:30;;;;;;;;;;;16.90;99.90;;;15.77;74.07;100125.50;3510154;40;102386;-40
2021/08/08 02:30:58;;;;;;;;;;;17.00;99.90;;;15.77;74.83;100135.69;3510358;40;102184;-40
2021/08/08 02:33:27;;;;;;;;;;;17.00;99.90;;;15.76;74.62;100132.09;3510007;40;104260;-40
2021/08/08 02:35:55;;;;;;;;;;;17.00;99.90;;;15.74;74.68;100130.72;3509934;40;102292;-40
2021/08/08 02:38:26;;;;;;;;;;;16.90;99.90;;;15.70;74.82;100133.16;3510130;40;105690;-40
2021/08/08 02:40:58;;;;;;;;;;;17.00;99.90;;;15.75;73.81;100140.63;3511207;40;103595;-39
2021/08/08 02:43:26;;;;;;;;;;;17.00;99.90;;;15.77;73.60;100149.44;3510446;40;104136;-40
2021/08/08 02:45:53;;;;;;;;;;;17.00;99.90;;;15.75;73.52;100148.88;3509968;40;102440;-40
2021/08/08 02:48:20;;;;;;;;;;;16.90;99.90;;;15.75;73.79;100155.19;3511445;40;104867;-41
2021/08/08 02:50:48;;;;;;;;;;;17.00;99.90;;;15.73;72.97;100160.13;3510719;40;102541;-40
2021/08/08 02:53:18;;;;;;;;;;;17.00;99.90;;;15.80;71.86;100166.25;3510345;40;102329;-39
2021/08/08 02:55:45;;;;;;;;;;;17.00;99.90;;;15.79;71.43;100155.50;3510928;40;102482;-40
2021/08/08 02:58:12;;;;;;;;;;;17.00;99.90;;;15.80;71.71;100166.25;3510919;40;104100;-39
2021/08/08 03:00:40;;;;;;;;;;;17.00;99.90;;;15.72;72.24;100163.16;3509894;40;103500;-40
2021/08/08 03:03:08;;;;;;;;;;;17.00;99.90;;;15.72;71.67;100163.97;3511019;40;105353;-39
2021/08/08 03:05:36;;;;;;;;;;;16.90;99.90;;;15.64;71.82;100175.44;3509717;40;103732;-40
2021/08/08 03:08:06;;;;;;;;;;;16.90;99.90;;;15.56;71.80;100173.19;3510100;40;103351;-40
2021/08/08 03:10:33;;;;;;;;;;;16.80;99.90;;;15.56;71.99;100176.75;3511063;40;102343;-39
2021/08/08 03:13:00;;;;;;;;;;;16.70;99.90;;;15.50;71.91;100183.31;3511090;40;103193;-39
2021/08/08 03:15:28;;;;;;;;;;;16.70;99.90;;;15.45;72.29;100183.25;3509860;40;102633;-41
2021/08/08 03:17:56;;;;;;;;;;;16.70;99.90;;;15.41;72.27;100187.63;3510999;40;104286;-40
2021/08/08 03:20:23;;;;;;;;;;;16.70;99.90;;;15.30;73.07;100186.69;3509796;40;102275;-40
2021/08/08 03:22:54;;;;;;;;;;;16.60;99.90;;;15.25;73.67;100198.47;3509989;40;102519;-39
2021/08/08 03:25:21;;;;;;;;;;;16.50;99.90;;;15.20;73.75;100212.16;3511108;40;102707;-39
2021/08/08 03:27:50;;;;;;;;;;;16.50;99.90;;;15.11;73.54;100206.28;3510058;40;103094;-40
2021/08/08 03:30:19;;;;;;;;;;;16.40;99.90;;;15.07;74.26;100205.16;3509122;40;102782;-39
2021/08/08 03:32:47;;;;;;;;;;;16.40;99.90;;;15.01;73.78;100212.50;3510853;40;102243;-39
2021/08/08 03:35:14;;;;;;;;;;;16.30;99.90;;;15.05;73.95;100215.56;3509544;40;104859;-39
2021/08/08 03:37:41;;;;;;;;;;;16.30;99.90;;;14.98;73.76;100215.75;3510398;40;103390;-40
2021/08/08 03:40:09;;;;;;;;;;;16.30;99.90;;;14.99;74.72;100222.09;3509867;40;102319;-40
2021/08/08 03:42:37;;;;;;;;;;;16.20;99.90;;;14.86;74.84;100220.56;3509717;40;103140;-40
2021/08/08 03:45:05;;;;;;;;;;;16.10;99.90;;;14.81;75.08;100226.81;3509601;40;102253;-40
2021/08/08 03:47:33;;;;;;;;;;;16.10;99.90;;;14.76;75.46;100221.25;3510946;40;103874;-39
2021/08/08 03:50:04;;;;;;;;;;;16.10;99.90;;;14.81;74.80;100224.06;3509768;40;102390;-39
2021/08/08 03:52:32;;;;;;;;;;;16.10;99.90;;;14.77;75.46;100239.41;3509653;40;104107;-40
2021/08/08 03:54:59;;;;;;;;;;;16.00;99.90;;;14.71;75.44;100243.97;3510608;40;102284;-39
2021/08/08 03:57:27;;;;;;;;;;;16.00;99.90;;;14.67;76.10;100249.09;3510562;40;103877;-40
2021/08/08 03:59:58;;;;;;;;;;;16.00;99.90;;;14.60;76.14;100247.66;3509752;40;103187;-39
2021/08/08 04:02:26;;;;;;;;;;;15.90;99.90;;;14.47;76.45;100248.84;3509639;40;102300;-40
2021/08/08 04:04:53;;;;;;;;;;;15.90;99.90;;;14.51;75.94;100252.75;3510727;40;102725;-39
2021/08/08 04:07:21;;;;;;;;;;;15.80;99.90;;;14.47;76.20;100252.41;3510644;40;102408;-40
2021/08/08 04:09:49;;;;;;;;;;;15.80;99.90;;;14.50;76.69;100259.31;3510832;40;102514;-40
2021/08/08 04:12:16;;;;;;;;;;;15.80;99.90;;;14.50;76.56;100262.88;3510579;40;102413;-40
2021/08/08 04:14:44;;;;;;;;;;;15.80;99.90;;;14.49;75.88;100261.22;3510752;40;102227;-38
2021/08/08 04:17:11;;;;;;;;;;;15.80;99.90;;;14.48;76.64;100281.50;3510529;40;103638;-40
2021/08/08 04:19:40;;;;;;;;;;;15.80;99.90;;;14.42;76.78;100268.81;3510471;40;102205;-39
2021/08/08 04:22:08;;;;;;;;;;;15.70;99.90;;;14.46;77.05;100278.19;3510455;40;102271;-39
2021/08/08 04:24:35;;;;;;;;;;;15.70;99.90;;;14.44;76.93;100283.09;3509361;40;102937;-40
2021/08/08 04:27:02;;;;;;;;;;;15.70;99.90;;;14.46;76.47;100277.38;3510385;40;103055;-40
2021/08/08 04:29:30;;;;;;;;;;;15.70;99.90;;;14.48;76.79;100286.19;3509671;40;103908;-40
2021/08/08 04:31:57;;;;;;;;;;;15.70;99.90;;;14.41;76.94;100283.63;3509611;40;104460;-39
2021/08/08 04:34:25;;;;;;;;;;;15.70;99.90;;;14.32;77.72;100282.34;3510263;40;103543;-41
2021/08/08 04:36:52;;;;;;;;;;;15.60;99.90;;;14.26;77.87;100291.59;3510583;40;104107;-39
2021/08/08 04:39:19;;;;;;;;;;;15.60;99.90;;;14.20;78.61;100286.03;3510364;40;102242;-40
2021/08/08 04:41:47;;;;;;;;;;;15.50;99.90;;;14.17;78.77;100294.75;3509382;40;103213;-38
2021/08/08 04:44:14;;;;;;;;;;;15.50;99.90;;;14.17;78.33;100297.50;3510439;40;104302;-39
2021/08/08 04:46:41;;;;;;;;;;;15.40;99.90;;;14.10;78.87;100305.09;3510578;40;105394;-40
2021/08/08 04:49:09;;;;;;;;;;;15.40;99.90;;;14.05;78.74;100308.56;3509480;40;103047;-39
2021/08/08 04:51:36;;;;;;;;;;;15.40;99.90;;;14.08;79.63;100307.25;3510135;40;105035;-40
2021/08/08 04:54:03;;;;;;;;;;;15.40;99.90;;;14.04;79.02;100306.91;3509222;40;104801;-39
2021/08/08 04:56:31;;;;;;;;;;;15.40;99.90;;;14.01;79.34;100303.81;3510390;40;102428;-39
2021/08/08 04:58:58;;;;;;;;;;;15.30;99.90;;;14.05;78.83;100315.94;3509410;40;102417;-40
2021/08/08 05:01:25;;;;;;;;;;;15.40;99.90;;;14.03;79.73;100313.47;3510220;40;103151;-40
2021/08/08 05:03:53;;;;;;;;;;;15.30;99.90;;;14.03;79.59;100316.22;3510051;40;103005;-39
2021/08/08 05:06:20;;;;;;;;;;;15.30;99.90;;;14.06;79.48;100314.88;3510561;40;104977;-39
2021/08/08 05:08:47;;;;;;;;;;;15.40;99.90;;;14.05;79.62;100321.44;3510479;40;102745;-40
2021/08/08 05:11:16;;;;;;;;;;;15.30;99.90;;;14.22;80.11;100324.19;3510082;40;104043;-39
2021/08/08 05:13:49;;;;;;;;;;;15.40;99.90;;;14.30;80.48;100323.78;3509459;40;102263;-39
2021/08/08 05:16:16;;;;;;;;;;;15.50;99.90;;;14.43;79.51;100330.00;3508996;40;103151;-40
2021/08/08 05:18:44;;;;;;;;;;;15.60;99.90;;;14.50;78.64;100334.25;3510432;40;102793;-39
2021/08/08 05:21:11;;;;;;;;;;;15.70;99.90;;;14.57;78.83;100333.22;3510526;40;103162;-40
2021/08/08 05:23:40;;;;;;;;;;;15.80;99.90;;;14.64;78.16;100336.66;3509168;40;102516;-39
2021/08/08 05:26:07;;;;;;;;;;;15.80;99.90;;;14.65;77.89;100341.88;3508925;40;105024;-40
2021/08/08 05:28:34;;;;;;;;;;;15.80;99.90;;;14.73;77.39;100346.16;3509146;40;102495;-38
2021/08/08 05:31:01;;;;;;;;;;;15.90;99.90;;;14.76;78.08;100342.88;3509073;40;104643;-40
2021/08/08 05:33:29;;;;;;;;;;;16.00;99.90;;;14.82;78.09;100352.03;3508832;40;104878;-39
2021/08/08 05:35:56;;;;;;;;;;;16.00;99.90;;;14.81;77.74;100356.69;3510023;40;104891;-39
2021/08/08 05:38:24;;;;;;;;;;;16.00;99.90;;;14.90;78.02;100356.28;3509861;40;102708;-40
2021/08/08 05:40:51;;;;;;;;;;;16.10;99.90;;;14.91;76.67;100363.44;3510362;40;105273;-39
2021/08/08 05:43:19;;;;;;;;;;;16.10;99.90;;;14.99;76.26;100364.91;3510205;40;102247;-40
2021/08/08 05:45:47;;;;;;;;;;;16.10;99.90;;;15.06;76.10;100373.81;3508864;40;105706;-39
2021/08/08 05:48:16;;;;;;;;;;;16.20;99.90;;;15.13;75.39;100379.13;3508889;40;102512;-40
2021/08/08 05:50:43;;;;;;;;;;;16.30;99.90;;;15.15;75.75;100376.94;3508769;40;102235;-38
2021/08/08 05:53:11;;;;;;;;;;;16.30;99.90;;;15.14;75.71;100381.59;3508923;40;102860;-40
2021/08/08 05:55:44;;;;;;;;;;;16.30;99.90;;;15.16;76.43;100389.59;3510904;40;102259;-40
2021/08/08 05:58:13;;;;;;;;;;;16.30;99.90;;;15.23;75.69;100387.50;3510060;40;102951;-38
2021/08/08 06:00:42;;;;;;;;;;;16.40;99.90;;;15.41;76.41;100391.03;3510028;40;104311;-40
2021/08/08 06:03:10;;;;;;;;;;;16.50;99.90;;;15.51;74.62;100391.13;3510373;40;102784;-39
2021/08/08 06:05:41;;;;;;;;;;;16.60;99.90;;;15.49;74.95;100393.31;3510011;40;105733;-39
2021/08/08 06:08:08;;;;;;;;;;;16.60;99.90;;;15.47;74.54;100403.75;3510326;40;102398;-40
2021/08/08 06:10:35;;;;;;;;;;;16.60;99.90;;;15.47;74.37;100399.06;3511166;40;103993;-39
2021/08/08 06:13:03;;;;;;;;;;;16.60;99.90;;;15.39;74.74;100410.50;3511413;40;102166;-41
2021/08/08 06:15:31;;;;;;;;;;;16.60;99.90;;;15.42;74.37;100403.69;3510008;40;103309;-39
2021/08/08 06:17:59;;;;;;;;;;;16.60;99.90;;;15.44;74.03;100413.31;3510296;40;103036;-39
2021/08/08 06:20:27;;;;;;;;;;;16.60;99.90;;;15.35;73.39;100412.09;3510070;40;104004;-39
2021/08/08 06:22:55;;;;;;;;;;;16.60;99.90;;;15.31;74.07;100421.94;3509969;40;102456;-39
2021/08/08 06:25:23;;;;;;;;;;;16.60;99.90;;;15.32;75.04;100418.94;3511143;40;103990;-38
2021/08/08 06:27:50;;;;;;;;;;;16.60;99.90;;;15.28;73.66;100420.53;3510943;40;102916;-40
2021/08/08 06:30:19;;;;;;;;;;;16.50;99.90;;;15.34;74.47;100419.50;3510940;40;104053;-39
2021/08/08 06:32:48;;;;;;;;;;;16.50;99.90;;;15.34;74.66;100425.00;3510152;40;102598;-40
2021/08/08 06:35:15;;;;;;;;;;;16.50;99.90;;;15.34;73.83;100427.75;3509779;40;103561;-39
2021/08/08 06:37:44;;;;;;;;;;;16.50;99.90;;;15.36;73.71;100425.56;3510759;40;102446;-40
2021/08/08 06:40:14;;;;;;;;;;;16.60;99.90;;;15.38;73.54;100437.19;3510209;40;104776;-40
2021/08/08 06:42:42;;;;;;;;;;;16.60;99.90;;;15.42;73.99;100436.66;3510126;40;102580;-39
2021/08/08 06:45:12;;;;;;;;;;;16.60;99.90;;;15.50;73.06;100442.53;3510194;40;103424;-40
2021/08/08 06:47:40;;;;;;;;;;;16.60;99.90;;;15.61;73.03;100438.00;3511720;40;102209;-39
2021/08/08 06:50:09;;;;;;;;;;;16.70;99.90;;;15.66;72.93;100437.22;3509827;40;105824;-40
2021/08/08 06:52:36;;;;;;;;;;;16.80;99.90;;;15.84;71.37;100447.06;3510131;40;103088;-39
2021/08/08 06:55:04;;;;;;;;;;;16.90;99.90;;;15.90;70.79;100450.75;3509617;40;104270;-40
2021/08/08 06:57:31;;;;;;;;;;;17.00;99.90;;;15.91;71.57;100449.66;3511317;40;102706;-39
2021/08/08 07:00:05;;;;;;;;;;;17.00;99.90;;;15.98;70.72;100452.22;3510020;40;102342;-40
2021/08/08 07:02:34;;;;;;;;;;;17.10;99.90;;;16.03;70.50;100455.03;3509814;40;102817;-40
2021/08/08 07:05:01;;;;;;;;;;;17.20;99.90;;;16.01;71.94;100451.69;3509249;40;104068;-40
2021/08/08 07:07:29;;;;;;;;;;;17.20;99.90;;;16.12;71.35;100469.16;3510752;40;102840;-38
2021/08/08 07:09:56;;;;;;;;;;;17.20;99.90;;;16.17;71.32;100464.50;3510327;40;104726;-40
2021/08/08 07:12:24;;;;;;;;;;;17.30;99.90;;;16.27;71.52;100462.97;3511196;40;102833;-40
2021/08/08 07:14:52;;;;;;;;;;;17.30;99.90;;;16.33;71.52;100471.03;3511124;40;102421;-39
2021/08/08 07:17:20;;;;;;;;;;;17.40;99.90;;;16.34;68.65;100461.69;3509723;40;102571;-40
2021/08/08 07:19:47;;;;;;;;;;;17.40;99.90;;;16.45;70.41;100479.13;3510203;40;102249;-39
2021/08/08 07:22:15;;;;;;;;;;;17.50;99.90;;;16.53;69.02;100472.31;3510485;40;102311;-40
2021/08/08 07:24:44;;;;;;;;;;;17.60;99.90;;;16.52;67.99;100474.25;3510790;40;102216;-40
2021/08/08 07:27:12;;;;;;;;;;;17.60;99.90;;;16.54;67.54;100482.22;3509874;40;102402;-40
2021/08/08 07:29:39;;;;;;;;;;;17.60;99.90;;;16.57;68.91;100484.44;3509637;40;104052;-39
2021/08/08 07:32:08;;;;;;;;;;;17.70;99.90;;;16.51;68.77;100464.31;3509590;40;102882;-40
2021/08/08 07:34:36;;;;;;;;;;;17.70;99.90;;;16.72;68.63;100486.53;3509632;40;104218;-39
2021/08/08 07:37:04;;;;;;;;;;;17.70;99.90;;;16.84;68.32;100489.09;3509816;40;102239;-41
2021/08/08 07:39:34;;;;;;;;;;;17.90;99.90;;;16.90;68.21;100484.47;3509543;40;103972;-40
2021/08/08 07:42:02;;;;;;;;;;;17.90;99.90;;;16.96;66.65;100491.66;3510637;40;102777;-40
2021/08/08 07:44:30;;;;;;;;;;;18.00;99.90;;;17.09;68.16;100488.50;3509495;40;104150;-39
2021/08/08 07:46:57;;;;;;;;;;;18.10;99.90;;;17.25;67.12;100496.91;3509849;40;102481;-40
2021/08/08 07:49:25;;;;;;;;;;;18.20;99.90;;;17.27;65.33;100499.38;3509622;40;105633;-39
2021/08/08 07:51:52;;;;;;;;;;;18.30;99.90;;;17.29;65.27;100497.19;3509455;40;103000;-41
2021/08/08 07:54:21;;;;;;;;;;;18.30;99.90;;;17.17;64.72;100502.88;3509539;40;104350;-39
2021/08/08 07:56:49;;;;;;;;;;;18.30;99.90;;;17.13;63.43;100513.63;3511098;40;102233;-39
2021/08/08 07:59:16;;;;;;;;;;;18.30;99.90;;;17.17;65.16;100511.16;3510800;40;102375;-39
2021/08/08 08:01:43;;;;;;;;;;;18.30;99.90;;;17.32;66.77;100505.75;3511215;40;102806;-39
2021/08/08 08:04:11;;;;;;;;;;;18.30;99.90;;;17.54;64.50;100505.59;3510581;40;102444;-40
2021/08/08 08:06:41;;;;;;;;;;;18.40;99.90;;;17.61;64.69;100513.66;3510117;40;102497;-39
2021/08/08 08:09:09;;;;;;;;;;;18.50;99.90;;;17.88;63.86;100514.59;3509672;40;102186;-40
2021/08/08 08:11:42;;;;;;;;;;;18.70;99.90;;;17.89;63.23;100513.47;3510102;40;102450;-40
2021/08/08 08:14:10;;;;;;;;;;;18.80;99.90;;;17.95;62.48;100510.47;3509709;40;102276;-40
2021/08/08 08:16:37;;;;;;;;;;;19.00;99.90;;;17.85;60.98;100532.53;3510783;40;103715;-40
2021/08/08 08:19:04;;;;;;;;;;;19.00;99.90;;;17.91;62.08;100527.88;3510577;40;104141;-40
2021/08/08 08:21:32;;;;;;;;;;;19.00;99.90;;;18.01;62.10;100535.34;3640098;22;103405;-40
2021/08/08 08:23:59;;;;;;;;;;;19.00;99.90;;;18.46;64.34;100524.78;3519772;40;103229;-38
2021/08/08 08:26:26;;;;;;;;;;;19.30;99.90;;;18.95;62.94;100534.47;3520542;40;102481;-39
2021/08/08 08:28:54;;;;;;;;;;;19.60;99.90;;;19.23;59.81;100532.28;3520628;40;103271;-39
2021/08/08 08:31:21;;;;;;;;;;;19.90;99.90;;;19.18;57.47;100537.84;3512582;39;103398;-39
2021/08/08 08:33:49;;;;;;;;;;;20.10;99.90;;;19.02;57.52;100540.59;3530954;39;104807;-39
2021/08/08 08:36:16;;;;;;;;;;;20.00;99.90;;;18.60;56.80;100541.66;3530737;39;102391;-36
2021/08/08 08:38:44;;;;;;;;;;;19.80;99.90;;;18.59;58.71;100543.56;3530523;39;104979;-41
2021/08/08 08:41:13;;;;;;;;;;;19.70;99.90;;;18.60;59.25;100545.22;3521068;39;102586;-39
2021/08/08 08:43:43;;;;;;;;;;;19.70;99.90;;;18.43;59.36;100548.22;3530544;39;103020;-39
2021/08/08 08:46:11;;;;;;;;;;;19.50;99.90;;;18.28;58.81;100550.94;3530346;39;102459;-39
2021/08/08 08:48:40;;;;;;;;;;;19.40;99.90;;;18.14;61.26;100556.13;3520850;39;104543;-39
2021/08/08 08:51:09;;;;;;;;;;;19.30;99.90;;;18.07;60.95;100559.97;3529908;39;103771;-39
2021/08/08 08:53:37;;;;;;;;;;;19.20;99.90;;;18.08;60.79;100558.88;3530381;39;102246;-38
2021/08/08 08:56:05;;;;;;;;;;;19.20;99.90;;;18.09;61.56;100554.19;3537681;39;102904;-39
2021/08/08 08:58:38;;;;;;;;;;;19.20;99.90;;;18.21;60.29;100551.19;3521024;39;102315;-39
2021/08/08 09:01:05;;;;;;;;;;;19.20;99.90;;;18.65;63.29;100560.97;3520767;39;102857;-39
2021/08/08 09:03:33;;;;;;;;;;;19.40;99.90;;;19.11;58.13;100554.69;3520461;39;106086;-42
2021/08/08 09:06:02;;;;;;;;;;;19.80;99.90;;;19.24;58.73;100564.38;3529964;39;102369;-37
2021/08/08 09:08:33;;;;;;;;;;;20.10;99.90;;;19.07;58.68;100565.47;3530053;39;104038;-38
2021/08/08 09:11:05;;;;;;;;;;;20.00;99.90;;;18.89;57.43;100568.75;3529843;39;103968;-40
2021/08/08 09:13:54;;;;;;;;;;;19.90;99.90;;;18.69;58.31;100570.38;3537489;39;103243;-39
2021/08/08 09:16:26;;;;;;;;;;;19.80;99.90;;;18.79;59.24;100569.56;3520878;39;104044;-39
2021/08/08 09:18:58;;;;;;;;;;;19.80;99.90;;;18.86;57.31;100581.19;3520779;39;105218;-38
2021/08/08 09:21:29;;;;;;;;;;;19.80;99.90;;;18.76;58.47;100593.03;3520472;39;102550;-39
2021/08/08 09:24:00;;;;;;;;;;;19.80;99.90;;;18.62;58.15;100586.41;3529536;39;104804;-37
2021/08/08 09:26:34;;;;;;;;;;;19.70;99.90;;;18.90;57.57;100581.47;3529856;39;102272;-39
2021/08/08 09:29:12;;;;;;;;;;;19.80;99.90;;;19.18;58.51;100584.84;3521180;39;103986;-39
2021/08/08 09:31:46;;;;;;;;;;;20.00;99.90;;;19.10;58.60;100595.34;3521877;39;102464;-39
2021/08/08 09:34:34;;;;;;;;;;;20.10;99.90;;;19.09;58.85;100604.72;3521869;39;104824;-39
2021/08/08 09:37:18;;;;;;;;;;;20.10;99.90;;;19.01;56.66;100596.97;3531528;39;102278;-39
2021/08/08 09:39:50;;;;;;;;;;;20.10;99.90;;;19.25;58.87;100596.44;3530934;39;102415;-39
2021/08/08 09:42:24;;;;;;;;;;;20.20;99.90;;;19.58;57.38;100602.50;3530918;39;102186;-37
2021/08/08 09:44:58;;;;;;;;;;;20.40;99.90;;;19.60;56.62;100600.28;3530666;39;105301;-40
2021/08/08 09:47:42;;;;;;;;;;;20.40;99.90;;;19.73;57.73;100606.38;3530854;39;102095;-39
2021/08/08 09:50:13;;;;;;;;;;;20.50;99.90;;;19.58;54.37;100604.44;3531750;39;103273;-36
2021/08/08 09:52:41;;;;;;;;;;;20.60;99.90;;;19.35;54.71;100604.72;3530924;39;102462;-39
2021/08/08 09:55:27;;;;;;;;;;;20.50;99.90;;;19.24;54.86;100601.16;3530878;39;102306;-39
2021/08/08 09:57:55;;;;;;;;;;;20.40;99.90;;;18.99;56.11;100606.69;3531332;39;102158;-38
2021/08/08 10:00:37;;;;;;;;;;;20.20;99.90;;;18.88;55.58;100606.59;3531315;39;102623;-39
2021/08/08 10:03:07;;;;;;;;;;;20.10;99.90;;;19.13;56.88;100624.38;3530860;39;102493;-39
2021/08/08 10:05:38;;;;;;;;;;;20.10;99.90;;;19.23;54.96;100621.63;3530824;39;102280;-39
2021/08/08 10:08:26;;;;;;;;;;;20.20;99.90;;;19.22;57.42;100610.81;3531197;39;102190;-39
2021/08/08 10:10:54;;;;;;;;;;;20.20;99.90;;;19.03;56.64;100619.66;3530704;39;102542;-39
2021/08/08 10:14:02;;;;;;;;;;;20.10;99.90;;;18.83;56.58;100624.03;3530947;39;102343;-39
2021/08/08 10:16:31;;;;;;;;;;;20.00;99.90;;;18.80;54.91;100629.25;3530928;39;103135;-39
2021/08/08 10:19:02;;;;;;;;;;;19.90;99.90;;;18.77;56.16;100616.81;3530836;39;103634;-39
2021/08/08 10:21:31;;;;;;;;;;;19.90;99.90;;;18.68;55.60;100623.97;3530612;39;103161;-38
2021/08/08 10:24:04;;;;;;;;;;;19.80;99.90;;;18.76;55.35;100623.44;3530736;39;102496;-40
2021/08/08 10:26:32;;;;;;;;;;;19.80;99.90;;;18.89;57.67;100624.84;3531172;39;102772;-39
2021/08/08 10:29:01;;;;;;;;;;;19.90;99.90;;;19.00;56.31;100622.16;3530882;39;102273;-37
2021/08/08 10:31:31;;;;;;;;;;;20.00;99.90;;;19.32;57.84;100630.19;3530670;39;102485;-40
2021/08/08 10:34:00;;;;;;;;;;;20.20;99.90;;;19.51;55.89;100621.31;3531111;39;102278;-39
2021/08/08 10:36:30;;;;;;;;;;;20.30;99.90;;;19.71;53.51;100625.19;3530902;39;102509;-39
2021/08/08 10:39:14;;;;;;;;;;;20.60;99.90;;;20.13;57.04;100618.44;3531218;39;102401;-39
2021/08/08 10:41:57;;;;;;;;;;;20.80;99.90;;;20.40;54.39;100622.78;3530979;39;103305;-42
2021/08/08 10:44:26;;;;;;;;;;;21.10;99.90;;;20.45;52.21;100621.94;3531135;39;102109;-39
2021/08/08 10:46:54;;;;;;;;;;;21.20;99.90;;;20.24;53.00;100620.09;3530890;39;102343;-41
2021/08/08 10:49:30;;;;;;;;;;;21.20;99.90;;;19.94;53.11;100630.16;3538394;39;102486;-40
2021/08/08 10:52:00;;;;;;;;;;;21.10;99.90;;;20.13;51.72;100618.44;3530967;39;102242;-38
2021/08/08 10:54:38;;;;;;;;;;;21.10;99.90;;;20.14;53.62;100625.66;3530880;39;102398;-40
2021/08/08 10:57:14;;;;;;;;;;;21.10;99.90;;;19.97;54.25;100621.28;3530838;39;102268;-39
2021/08/08 10:59:47;;;;;;;;;;;21.00;99.90;;;19.78;51.93;100623.78;3530793;39;102872;-39
2021/08/08 11:02:16;;;;;;;;;;;20.90;99.90;;;19.75;52.53;100627.09;3530825;39;102342;-39
2021/08/08 11:04:43;;;;;;;;;;;20.80;99.90;;;19.86;52.81;100627.91;3531029;39;102110;-40
2021/08/08 11:07:11;;;;;;;;;;;20.80;99.90;;;20.05;52.53;100628.19;3530764;39;103851;-41
2021/08/08 11:09:40;;;;;;;;;;;21.00;99.90;;;20.26;54.16;100628.09;3530901;39;102318;-40
2021/08/08 11:12:08;;;;;;;;;;;21.10;99.90;;;20.55;52.78;100627.41;3530782;39;103150;-41
2021/08/08 11:14:47;;;;;;;;;;;21.40;99.90;;;20.62;53.59;100624.34;3530880;39;102475;-40